sensor_id;sensor_type;location;lat;lon;timestamp;P1;durP1;ratioP1;P2;durP2;ratioP2
25962;SDS011;13760;52.588;13.406;2023-11-21T00:00:17;80.97;;;28.90;;
25962;SDS011;13760;52.588;13.406;2023-11-21T00:02:43;77.78;;;27.67;;
25962;SDS011;13760;52.588;13.406;2023-11-21T00:05:11;86.63;;;30.30;;
25962;SDS011;13760;52.588;13.406;2023-11-21T00:07:39;94.40;;;29.88;;
25962;SDS011;13760;52.588;13.406;2023-11-21T00:10:05;106.50;;;31.17;;
25962;SDS011;13760;52.588;13.406;2023-11-21T00:12:33;88.88;;;29.25;;
25962;SDS011;13760;52.588;13.406;2023-11-21T00:14:59;98.80;;;31.40;;
25962;SDS011;13760;52.588;13.406;2023-11-21T00:17:25;109.78;;;33.42;;
25962;SDS011;13760;52.588;13.406;2023-11-21T00:19:50;107.20;;;31.60;;
25962;SDS011;13760;52.588;13.406;2023-11-21T00:22:19;120.15;;;32.38;;
25962;SDS011;13760;52.588;13.406;2023-11-21T00:24:45;123.00;;;33.55;;
25962;SDS011;13760;52.588;13.406;2023-11-21T00:27:10;127.88;;;34.50;;
25962;SDS011;13760;52.588;13.406;2023-11-21T00:29:36;129.23;;;35.63;;
25962;SDS011;13760;52.588;13.406;2023-11-21T00:32:02;146.65;;;36.70;;
25962;SDS011;13760;52.588;13.406;2023-11-21T00:34:27;139.85;;;36.38;;
25962;SDS011;13760;52.588;13.406;2023-11-21T00:36:53;134.88;;;36.60;;
25962;SDS011;13760;52.588;13.406;2023-11-21T00:39:18;154.60;;;39.58;;
25962;SDS011;13760;52.588;13.406;2023-11-21T00:41:44;155.05;;;38.70;;
25962;SDS011;13760;52.588;13.406;2023-11-21T00:44:10;169.80;;;42.58;;
25962;SDS011;13760;52.588;13.406;2023-11-21T00:46:36;153.00;;;40.28;;
25962;SDS011;13760;52.588;13.406;2023-11-21T00:49:02;169.60;;;43.63;;
25962;SDS011;13760;52.588;13.406;2023-11-21T00:51:29;175.73;;;44.58;;
25962;SDS011;13760;52.588;13.406;2023-11-21T00:53:55;196.75;;;46.50;;
25962;SDS011;13760;52.588;13.406;2023-11-21T00:56:20;172.85;;;44.72;;
25962;SDS011;13760;52.588;13.406;2023-11-21T00:58:49;170.68;;;43.80;;
25962;SDS011;13760;52.588;13.406;2023-11-21T01:01:17;161.82;;;43.35;;
25962;SDS011;13760;52.588;13.406;2023-11-21T01:03:49;180.95;;;45.08;;
25962;SDS011;13760;52.588;13.406;2023-11-21T01:06:15;182.57;;;43.45;;
25962;SDS011;13760;52.588;13.406;2023-11-21T01:08:41;185.95;;;43.33;;
25962;SDS011;13760;52.588;13.406;2023-11-21T01:11:07;166.27;;;41.38;;
25962;SDS011;13760;52.588;13.406;2023-11-21T01:13:33;126.32;;;37.28;;
25962;SDS011;13760;52.588;13.406;2023-11-21T01:16:00;146.93;;;36.63;;
25962;SDS011;13760;52.588;13.406;2023-11-21T01:18:26;154.48;;;38.08;;
25962;SDS011;13760;52.588;13.406;2023-11-21T01:20:51;124.65;;;34.67;;
25962;SDS011;13760;52.588;13.406;2023-11-21T01:23:19;130.57;;;34.47;;
25962;SDS011;13760;52.588;13.406;2023-11-21T01:25:44;111.45;;;32.00;;
25962;SDS011;13760;52.588;13.406;2023-11-21T01:28:10;115.53;;;30.60;;
25962;SDS011;13760;52.588;13.406;2023-11-21T01:30:36;97.82;;;28.85;;
25962;SDS011;13760;52.588;13.406;2023-11-21T01:33:02;91.60;;;28.13;;
25962;SDS011;13760;52.588;13.406;2023-11-21T01:35:28;94.88;;;27.30;;
25962;SDS011;13760;52.588;13.406;2023-11-21T01:37:53;98.07;;;28.40;;
25962;SDS011;13760;52.588;13.406;2023-11-21T01:40:19;96.20;;;27.67;;
25962;SDS011;13760;52.588;13.406;2023-11-21T01:42:44;94.20;;;27.33;;
25962;SDS011;13760;52.588;13.406;2023-11-21T01:45:11;98.10;;;28.30;;
25962;SDS011;13760;52.588;13.406;2023-11-21T01:47:38;86.32;;;26.77;;
25962;SDS011;13760;52.588;13.406;2023-11-21T01:50:05;77.28;;;24.73;;
25962;SDS011;13760;52.588;13.406;2023-11-21T01:52:33;63.90;;;23.67;;
25962;SDS011;13760;52.588;13.406;2023-11-21T01:55:00;68.45;;;22.38;;
25962;SDS011;13760;52.588;13.406;2023-11-21T01:57:27;72.60;;;23.65;;
25962;SDS011;13760;52.588;13.406;2023-11-21T01:59:54;64.28;;;22.58;;
25962;SDS011;13760;52.588;13.406;2023-11-21T02:02:19;60.35;;;21.50;;
25962;SDS011;13760;52.588;13.406;2023-11-21T02:04:45;54.70;;;21.17;;
25962;SDS011;13760;52.588;13.406;2023-11-21T02:07:11;53.83;;;19.15;;
25962;SDS011;13760;52.588;13.406;2023-11-21T02:09:36;54.70;;;20.20;;
25962;SDS011;13760;52.588;13.406;2023-11-21T02:12:07;52.58;;;19.50;;
25962;SDS011;13760;52.588;13.406;2023-11-21T02:14:35;48.30;;;19.15;;
25962;SDS011;13760;52.588;13.406;2023-11-21T02:17:01;38.30;;;17.77;;
25962;SDS011;13760;52.588;13.406;2023-11-21T02:19:28;44.05;;;18.20;;
25962;SDS011;13760;52.588;13.406;2023-11-21T02:21:54;41.78;;;18.52;;
25962;SDS011;13760;52.588;13.406;2023-11-21T02:24:24;29.70;;;13.30;;
25962;SDS011;13760;52.588;13.406;2023-11-21T02:26:50;38.05;;;17.63;;
25962;SDS011;13760;52.588;13.406;2023-11-21T02:29:19;40.08;;;18.27;;
25962;SDS011;13760;52.588;13.406;2023-11-21T02:31:52;40.55;;;19.15;;
25962;SDS011;13760;52.588;13.406;2023-11-21T02:34:19;37.53;;;18.25;;
25962;SDS011;13760;52.588;13.406;2023-11-21T02:36:45;35.90;;;17.33;;
25962;SDS011;13760;52.588;13.406;2023-11-21T02:39:12;35.83;;;17.00;;
25962;SDS011;13760;52.588;13.406;2023-11-21T02:41:38;29.13;;;15.68;;
25962;SDS011;13760;52.588;13.406;2023-11-21T02:44:04;30.35;;;17.23;;
25962;SDS011;13760;52.588;13.406;2023-11-21T02:46:31;31.38;;;17.20;;
25962;SDS011;13760;52.588;13.406;2023-11-21T02:48:59;33.85;;;17.48;;
25962;SDS011;13760;52.588;13.406;2023-11-21T02:51:25;31.27;;;17.83;;
25962;SDS011;13760;52.588;13.406;2023-11-21T02:53:51;31.30;;;18.13;;
25962;SDS011;13760;52.588;13.406;2023-11-21T02:56:17;27.33;;;16.27;;
25962;SDS011;13760;52.588;13.406;2023-11-21T02:58:43;27.25;;;17.23;;
25962;SDS011;13760;52.588;13.406;2023-11-21T03:01:09;30.17;;;17.35;;
25962;SDS011;13760;52.588;13.406;2023-11-21T03:03:35;30.35;;;17.48;;
25962;SDS011;13760;52.588;13.406;2023-11-21T03:06:05;32.92;;;18.05;;
25962;SDS011;13760;52.588;13.406;2023-11-21T03:08:31;28.88;;;17.88;;
25962;SDS011;13760;52.588;13.406;2023-11-21T03:10:57;27.75;;;17.35;;
25962;SDS011;13760;52.588;13.406;2023-11-21T03:13:23;28.13;;;18.17;;
25962;SDS011;13760;52.588;13.406;2023-11-21T03:15:48;31.05;;;18.70;;
25962;SDS011;13760;52.588;13.406;2023-11-21T03:18:14;30.23;;;17.42;;
25962;SDS011;13760;52.588;13.406;2023-11-21T03:20:39;26.55;;;16.60;;
25962;SDS011;13760;52.588;13.406;2023-11-21T03:23:05;25.52;;;16.63;;
25962;SDS011;13760;52.588;13.406;2023-11-21T03:25:30;25.38;;;16.15;;
25962;SDS011;13760;52.588;13.406;2023-11-21T03:27:56;25.90;;;16.40;;
25962;SDS011;13760;52.588;13.406;2023-11-21T03:30:21;24.73;;;15.32;;
25962;SDS011;13760;52.588;13.406;2023-11-21T03:32:47;26.15;;;16.85;;
25962;SDS011;13760;52.588;13.406;2023-11-21T03:35:13;27.15;;;16.80;;
25962;SDS011;13760;52.588;13.406;2023-11-21T03:37:38;24.23;;;15.70;;
25962;SDS011;13760;52.588;13.406;2023-11-21T03:40:06;25.88;;;16.55;;
25962;SDS011;13760;52.588;13.406;2023-11-21T03:42:34;23.13;;;15.57;;
25962;SDS011;13760;52.588;13.406;2023-11-21T03:44:59;26.40;;;16.20;;
25962;SDS011;13760;52.588;13.406;2023-11-21T03:47:26;29.35;;;17.42;;
25962;SDS011;13760;52.588;13.406;2023-11-21T03:49:52;31.08;;;16.98;;
25962;SDS011;13760;52.588;13.406;2023-11-21T03:52:18;27.48;;;16.10;;
25962;SDS011;13760;52.588;13.406;2023-11-21T03:54:44;26.52;;;16.23;;
25962;SDS011;13760;52.588;13.406;2023-11-21T03:57:09;29.67;;;17.33;;
25962;SDS011;13760;52.588;13.406;2023-11-21T03:59:35;24.13;;;15.38;;
25962;SDS011;13760;52.588;13.406;2023-11-21T04:02:00;28.23;;;16.40;;
25962;SDS011;13760;52.588;13.406;2023-11-21T04:04:26;31.63;;;16.48;;
25962;SDS011;13760;52.588;13.406;2023-11-21T04:06:52;23.35;;;15.95;;
25962;SDS011;13760;52.588;13.406;2023-11-21T04:09:17;26.60;;;15.85;;
25962;SDS011;13760;52.588;13.406;2023-11-21T04:11:43;25.88;;;16.10;;
25962;SDS011;13760;52.588;13.406;2023-11-21T04:14:10;26.70;;;16.02;;
25962;SDS011;13760;52.588;13.406;2023-11-21T04:16:36;26.80;;;16.00;;
25962;SDS011;13760;52.588;13.406;2023-11-21T04:19:01;26.33;;;15.98;;
25962;SDS011;13760;52.588;13.406;2023-11-21T04:21:27;25.92;;;16.40;;
25962;SDS011;13760;52.588;13.406;2023-11-21T04:23:52;26.70;;;16.27;;
25962;SDS011;13760;52.588;13.406;2023-11-21T04:26:18;25.92;;;15.90;;
25962;SDS011;13760;52.588;13.406;2023-11-21T04:28:43;25.20;;;16.25;;
25962;SDS011;13760;52.588;13.406;2023-11-21T04:31:09;27.50;;;16.02;;
25962;SDS011;13760;52.588;13.406;2023-11-21T04:33:35;20.70;;;14.27;;
25962;SDS011;13760;52.588;13.406;2023-11-21T04:36:01;25.45;;;15.38;;
25962;SDS011;13760;52.588;13.406;2023-11-21T04:38:29;23.77;;;14.48;;
25962;SDS011;13760;52.588;13.406;2023-11-21T04:41:06;24.25;;;14.50;;
25962;SDS011;13760;52.588;13.406;2023-11-21T04:43:32;27.17;;;16.52;;
25962;SDS011;13760;52.588;13.406;2023-11-21T04:45:57;24.95;;;15.02;;
25962;SDS011;13760;52.588;13.406;2023-11-21T04:48:23;27.85;;;16.35;;
25962;SDS011;13760;52.588;13.406;2023-11-21T04:50:48;28.40;;;16.00;;
25962;SDS011;13760;52.588;13.406;2023-11-21T04:53:14;24.13;;;15.27;;
25962;SDS011;13760;52.588;13.406;2023-11-21T04:55:40;24.17;;;15.27;;
25962;SDS011;13760;52.588;13.406;2023-11-21T04:58:06;23.95;;;15.38;;
25962;SDS011;13760;52.588;13.406;2023-11-21T05:00:41;24.60;;;15.02;;
25962;SDS011;13760;52.588;13.406;2023-11-21T05:03:09;23.45;;;15.35;;
25962;SDS011;13760;52.588;13.406;2023-11-21T05:05:34;23.13;;;14.30;;
25962;SDS011;13760;52.588;13.406;2023-11-21T05:08:00;22.35;;;13.98;;
25962;SDS011;13760;52.588;13.406;2023-11-21T05:10:26;22.48;;;14.13;;
25962;SDS011;13760;52.588;13.406;2023-11-21T05:12:52;21.70;;;13.50;;
25962;SDS011;13760;52.588;13.406;2023-11-21T05:15:17;22.38;;;13.70;;
25962;SDS011;13760;52.588;13.406;2023-11-21T05:17:43;22.65;;;13.35;;
25962;SDS011;13760;52.588;13.406;2023-11-21T05:20:10;22.35;;;13.38;;
25962;SDS011;13760;52.588;13.406;2023-11-21T05:22:37;20.63;;;13.40;;
25962;SDS011;13760;52.588;13.406;2023-11-21T05:25:03;21.63;;;13.10;;
25962;SDS011;13760;52.588;13.406;2023-11-21T05:27:29;20.80;;;13.52;;
25962;SDS011;13760;52.588;13.406;2023-11-21T05:29:58;23.27;;;14.13;;
25962;SDS011;13760;52.588;13.406;2023-11-21T05:32:24;22.45;;;13.63;;
25962;SDS011;13760;52.588;13.406;2023-11-21T05:34:50;21.27;;;13.77;;
25962;SDS011;13760;52.588;13.406;2023-11-21T05:37:16;20.77;;;13.07;;
25962;SDS011;13760;52.588;13.406;2023-11-21T05:39:42;21.13;;;12.70;;
25962;SDS011;13760;52.588;13.406;2023-11-21T05:42:08;19.77;;;11.90;;
25962;SDS011;13760;52.588;13.406;2023-11-21T05:44:35;19.58;;;12.02;;
25962;SDS011;13760;52.588;13.406;2023-11-21T05:47:02;20.08;;;12.02;;
25962;SDS011;13760;52.588;13.406;2023-11-21T05:49:28;22.58;;;13.38;;
25962;SDS011;13760;52.588;13.406;2023-11-21T05:51:54;19.88;;;11.98;;
25962;SDS011;13760;52.588;13.406;2023-11-21T05:54:20;17.90;;;11.18;;
25962;SDS011;13760;52.588;13.406;2023-11-21T05:56:47;17.30;;;11.85;;
25962;SDS011;13760;52.588;13.406;2023-11-21T05:59:12;16.23;;;10.07;;
25962;SDS011;13760;52.588;13.406;2023-11-21T06:01:39;17.65;;;10.73;;
25962;SDS011;13760;52.588;13.406;2023-11-21T06:04:05;17.77;;;10.70;;
25962;SDS011;13760;52.588;13.406;2023-11-21T06:06:33;14.15;;;9.40;;
25962;SDS011;13760;52.588;13.406;2023-11-21T06:09:02;14.85;;;9.60;;
25962;SDS011;13760;52.588;13.406;2023-11-21T06:11:34;16.10;;;9.90;;
25962;SDS011;13760;52.588;13.406;2023-11-21T06:13:59;15.38;;;10.23;;
25962;SDS011;13760;52.588;13.406;2023-11-21T06:16:25;14.73;;;9.85;;
25962;SDS011;13760;52.588;13.406;2023-11-21T06:18:52;15.73;;;9.68;;
25962;SDS011;13760;52.588;13.406;2023-11-21T06:21:17;14.77;;;9.98;;
25962;SDS011;13760;52.588;13.406;2023-11-21T06:23:43;14.73;;;9.02;;
25962;SDS011;13760;52.588;13.406;2023-11-21T06:26:09;14.65;;;9.40;;
25962;SDS011;13760;52.588;13.406;2023-11-21T06:28:34;14.07;;;9.20;;
25962;SDS011;13760;52.588;13.406;2023-11-21T06:31:01;12.48;;;8.63;;
25962;SDS011;13760;52.588;13.406;2023-11-21T06:33:33;12.60;;;8.65;;
25962;SDS011;13760;52.588;13.406;2023-11-21T06:35:59;13.70;;;8.90;;
25962;SDS011;13760;52.588;13.406;2023-11-21T06:38:28;11.88;;;8.60;;
25962;SDS011;13760;52.588;13.406;2023-11-21T06:40:55;12.55;;;7.97;;
25962;SDS011;13760;52.588;13.406;2023-11-21T06:43:22;11.90;;;8.52;;
25962;SDS011;13760;52.588;13.406;2023-11-21T06:45:47;11.88;;;7.88;;
25962;SDS011;13760;52.588;13.406;2023-11-21T06:48:13;12.82;;;8.68;;
25962;SDS011;13760;52.588;13.406;2023-11-21T06:50:39;12.73;;;8.68;;
25962;SDS011;13760;52.588;13.406;2023-11-21T06:53:06;13.45;;;8.73;;
25962;SDS011;13760;52.588;13.406;2023-11-21T06:55:33;12.23;;;8.57;;
25962;SDS011;13760;52.588;13.406;2023-11-21T06:57:58;12.07;;;8.30;;
25962;SDS011;13760;52.588;13.406;2023-11-21T07:00:25;13.73;;;9.10;;
25962;SDS011;13760;52.588;13.406;2023-11-21T07:02:53;15.02;;;9.68;;
25962;SDS011;13760;52.588;13.406;2023-11-21T07:05:20;12.35;;;9.13;;
25962;SDS011;13760;52.588;13.406;2023-11-21T07:07:50;13.05;;;9.15;;
25962;SDS011;13760;52.588;13.406;2023-11-21T07:10:32;15.48;;;9.52;;
25962;SDS011;13760;52.588;13.406;2023-11-21T07:13:03;14.10;;;9.57;;
25962;SDS011;13760;52.588;13.406;2023-11-21T07:15:29;14.00;;;9.13;;
25962;SDS011;13760;52.588;13.406;2023-11-21T07:17:54;13.98;;;8.48;;
25962;SDS011;13760;52.588;13.406;2023-11-21T07:20:20;11.80;;;8.43;;
25962;SDS011;13760;52.588;13.406;2023-11-21T07:22:47;16.63;;;8.45;;
25962;SDS011;13760;52.588;13.406;2023-11-21T07:25:17;14.23;;;8.38;;
25962;SDS011;13760;52.588;13.406;2023-11-21T07:27:42;12.80;;;8.30;;
25962;SDS011;13760;52.588;13.406;2023-11-21T07:30:08;11.30;;;7.60;;
25962;SDS011;13760;52.588;13.406;2023-11-21T07:32:35;11.75;;;8.05;;
25962;SDS011;13760;52.588;13.406;2023-11-21T07:35:00;12.35;;;7.82;;
25962;SDS011;13760;52.588;13.406;2023-11-21T07:37:26;11.82;;;7.55;;
25962;SDS011;13760;52.588;13.406;2023-11-21T07:39:54;15.00;;;7.88;;
25962;SDS011;13760;52.588;13.406;2023-11-21T07:42:30;12.32;;;7.75;;
25962;SDS011;13760;52.588;13.406;2023-11-21T07:44:55;12.43;;;8.30;;
25962;SDS011;13760;52.588;13.406;2023-11-21T07:47:21;11.85;;;7.57;;
25962;SDS011;13760;52.588;13.406;2023-11-21T07:49:47;11.32;;;7.43;;
25962;SDS011;13760;52.588;13.406;2023-11-21T07:52:13;15.38;;;7.47;;
25962;SDS011;13760;52.588;13.406;2023-11-21T07:54:41;11.70;;;7.57;;
25962;SDS011;13760;52.588;13.406;2023-11-21T07:57:07;10.75;;;7.40;;
25962;SDS011;13760;52.588;13.406;2023-11-21T07:59:33;10.65;;;7.55;;
25962;SDS011;13760;52.588;13.406;2023-11-21T08:02:01;12.18;;;8.00;;
25962;SDS011;13760;52.588;13.406;2023-11-21T08:04:30;11.80;;;7.80;;
25962;SDS011;13760;52.588;13.406;2023-11-21T08:06:57;11.18;;;7.57;;
25962;SDS011;13760;52.588;13.406;2023-11-21T08:09:22;10.68;;;7.20;;
25962;SDS011;13760;52.588;13.406;2023-11-21T08:11:48;11.60;;;7.65;;
25962;SDS011;13760;52.588;13.406;2023-11-21T08:14:14;11.52;;;8.05;;
25962;SDS011;13760;52.588;13.406;2023-11-21T08:16:40;14.90;;;7.70;;
25962;SDS011;13760;52.588;13.406;2023-11-21T08:19:06;11.90;;;8.20;;
25962;SDS011;13760;52.588;13.406;2023-11-21T08:21:33;12.48;;;8.25;;
25962;SDS011;13760;52.588;13.406;2023-11-21T08:23:59;10.93;;;8.02;;
25962;SDS011;13760;52.588;13.406;2023-11-21T08:26:25;10.55;;;7.28;;
25962;SDS011;13760;52.588;13.406;2023-11-21T08:28:51;10.65;;;7.18;;
25962;SDS011;13760;52.588;13.406;2023-11-21T08:31:27;12.10;;;6.63;;
25962;SDS011;13760;52.588;13.406;2023-11-21T08:33:53;9.00;;;6.40;;
25962;SDS011;13760;52.588;13.406;2023-11-21T08:36:20;10.73;;;6.93;;
25962;SDS011;13760;52.588;13.406;2023-11-21T08:38:49;9.25;;;6.45;;
25962;SDS011;13760;52.588;13.406;2023-11-21T08:41:21;8.98;;;6.53;;
25962;SDS011;13760;52.588;13.406;2023-11-21T08:43:47;10.95;;;6.90;;
25962;SDS011;13760;52.588;13.406;2023-11-21T08:46:14;9.73;;;6.63;;
25962;SDS011;13760;52.588;13.406;2023-11-21T08:48:42;11.60;;;6.18;;
25962;SDS011;13760;52.588;13.406;2023-11-21T08:51:09;11.50;;;6.55;;
25962;SDS011;13760;52.588;13.406;2023-11-21T08:53:36;13.90;;;7.20;;
25962;SDS011;13760;52.588;13.406;2023-11-21T08:56:02;14.95;;;7.78;;
25962;SDS011;13760;52.588;13.406;2023-11-21T08:58:29;14.18;;;6.97;;
25962;SDS011;13760;52.588;13.406;2023-11-21T09:00:55;14.00;;;7.43;;
25962;SDS011;13760;52.588;13.406;2023-11-21T09:03:21;13.70;;;7.10;;
25962;SDS011;13760;52.588;13.406;2023-11-21T09:05:47;15.27;;;8.20;;
25962;SDS011;13760;52.588;13.406;2023-11-21T09:08:13;15.27;;;7.78;;
25962;SDS011;13760;52.588;13.406;2023-11-21T09:10:39;15.40;;;8.02;;
25962;SDS011;13760;52.588;13.406;2023-11-21T09:13:04;20.83;;;8.68;;
25962;SDS011;13760;52.588;13.406;2023-11-21T09:15:30;22.50;;;9.45;;
25962;SDS011;13760;52.588;13.406;2023-11-21T09:17:57;27.88;;;10.15;;
25962;SDS011;13760;52.588;13.406;2023-11-21T09:20:28;23.23;;;10.55;;
25962;SDS011;13760;52.588;13.406;2023-11-21T09:22:53;27.50;;;9.88;;
25962;SDS011;13760;52.588;13.406;2023-11-21T09:25:20;21.67;;;9.70;;
25962;SDS011;13760;52.588;13.406;2023-11-21T09:27:46;28.98;;;10.52;;
25962;SDS011;13760;52.588;13.406;2023-11-21T09:30:12;26.00;;;10.13;;
25962;SDS011;13760;52.588;13.406;2023-11-21T09:32:39;26.02;;;9.65;;
25962;SDS011;13760;52.588;13.406;2023-11-21T09:35:05;24.55;;;9.93;;
25962;SDS011;13760;52.588;13.406;2023-11-21T09:37:33;26.90;;;10.77;;
25962;SDS011;13760;52.588;13.406;2023-11-21T09:39:58;27.05;;;11.23;;
25962;SDS011;13760;52.588;13.406;2023-11-21T09:42:57;26.05;;;10.15;;
25962;SDS011;13760;52.588;13.406;2023-11-21T09:45:26;24.95;;;10.82;;
25962;SDS011;13760;52.588;13.406;2023-11-21T09:47:54;24.52;;;10.00;;
25962;SDS011;13760;52.588;13.406;2023-11-21T09:50:20;28.75;;;11.10;;
25962;SDS011;13760;52.588;13.406;2023-11-21T09:52:49;24.63;;;10.25;;
25962;SDS011;13760;52.588;13.406;2023-11-21T09:55:22;23.15;;;9.48;;
25962;SDS011;13760;52.588;13.406;2023-11-21T09:57:51;18.67;;;8.50;;
25962;SDS011;13760;52.588;13.406;2023-11-21T10:00:19;23.90;;;9.38;;
25962;SDS011;13760;52.588;13.406;2023-11-21T10:02:48;22.27;;;8.93;;
25962;SDS011;13760;52.588;13.406;2023-11-21T10:05:15;20.75;;;8.38;;
25962;SDS011;13760;52.588;13.406;2023-11-21T10:07:43;19.42;;;8.23;;
25962;SDS011;13760;52.588;13.406;2023-11-21T10:10:10;22.63;;;9.32;;
25962;SDS011;13760;52.588;13.406;2023-11-21T10:12:36;19.95;;;8.32;;
25962;SDS011;13760;52.588;13.406;2023-11-21T10:15:04;17.50;;;7.55;;
25962;SDS011;13760;52.588;13.406;2023-11-21T10:17:33;13.98;;;6.38;;
25962;SDS011;13760;52.588;13.406;2023-11-21T10:20:11;15.88;;;7.50;;
25962;SDS011;13760;52.588;13.406;2023-11-21T10:22:39;15.07;;;7.00;;
25962;SDS011;13760;52.588;13.406;2023-11-21T10:25:12;14.60;;;7.32;;
25962;SDS011;13760;52.588;13.406;2023-11-21T10:27:41;11.90;;;6.22;;
25962;SDS011;13760;52.588;13.406;2023-11-21T10:30:08;15.02;;;7.05;;
25962;SDS011;13760;52.588;13.406;2023-11-21T10:32:40;15.95;;;7.63;;
25962;SDS011;13760;52.588;13.406;2023-11-21T10:35:07;14.52;;;7.40;;
25962;SDS011;13760;52.588;13.406;2023-11-21T10:37:41;13.18;;;6.85;;
25962;SDS011;13760;52.588;13.406;2023-11-21T10:40:08;15.57;;;6.80;;
25962;SDS011;13760;52.588;13.406;2023-11-21T10:42:38;11.83;;;5.70;;
25962;SDS011;13760;52.588;13.406;2023-11-21T10:45:04;10.68;;;6.13;;
25962;SDS011;13760;52.588;13.406;2023-11-21T10:47:42;9.82;;;5.47;;
25962;SDS011;13760;52.588;13.406;2023-11-21T10:50:09;9.43;;;5.78;;
25962;SDS011;13760;52.588;13.406;2023-11-21T10:52:36;7.53;;;4.80;;
25962;SDS011;13760;52.588;13.406;2023-11-21T10:55:25;8.70;;;5.50;;
25962;SDS011;13760;52.588;13.406;2023-11-21T10:57:53;9.52;;;5.28;;
25962;SDS011;13760;52.588;13.406;2023-11-21T11:00:22;8.55;;;5.07;;
25962;SDS011;13760;52.588;13.406;2023-11-21T11:02:51;12.88;;;4.78;;
25962;SDS011;13760;52.588;13.406;2023-11-21T11:05:21;8.35;;;5.18;;
25962;SDS011;13760;52.588;13.406;2023-11-21T11:07:52;7.20;;;5.10;;
25962;SDS011;13760;52.588;13.406;2023-11-21T11:10:27;8.00;;;5.40;;
25962;SDS011;13760;52.588;13.406;2023-11-21T11:12:54;7.13;;;4.60;;
25962;SDS011;13760;52.588;13.406;2023-11-21T11:15:20;9.50;;;4.80;;
25962;SDS011;13760;52.588;13.406;2023-11-21T11:17:46;7.90;;;5.40;;
25962;SDS011;13760;52.588;13.406;2023-11-21T11:20:14;7.13;;;4.93;;
25962;SDS011;13760;52.588;13.406;2023-11-21T11:28:15;7.60;;;4.90;;
25962;SDS011;13760;52.588;13.406;2023-11-21T11:33:43;8.02;;;5.47;;
25962;SDS011;13760;52.588;13.406;2023-11-21T11:36:40;9.57;;;5.38;;
25962;SDS011;13760;52.588;13.406;2023-11-21T11:42:11;9.23;;;4.97;;
25962;SDS011;13760;52.588;13.406;2023-11-21T11:50:00;6.53;;;5.22;;
25962;SDS011;13760;52.588;13.406;2023-11-21T11:52:42;6.90;;;4.85;;
25962;SDS011;13760;52.588;13.406;2023-11-21T11:55:13;11.57;;;4.50;;
25962;SDS011;13760;52.588;13.406;2023-11-21T11:57:43;7.00;;;4.80;;
25962;SDS011;13760;52.588;13.406;2023-11-21T12:02:41;6.78;;;4.88;;
25962;SDS011;13760;52.588;13.406;2023-11-21T12:05:13;6.65;;;5.05;;
25962;SDS011;13760;52.588;13.406;2023-11-21T12:07:50;10.02;;;5.10;;
25962;SDS011;13760;52.588;13.406;2023-11-21T12:10:23;8.35;;;5.25;;
25962;SDS011;13760;52.588;13.406;2023-11-21T12:15:19;9.60;;;6.65;;
25962;SDS011;13760;52.588;13.406;2023-11-21T12:17:46;10.32;;;6.97;;
25962;SDS011;13760;52.588;13.406;2023-11-21T12:20:20;9.75;;;6.65;;
25962;SDS011;13760;52.588;13.406;2023-11-21T12:22:51;11.30;;;7.32;;
25962;SDS011;13760;52.588;13.406;2023-11-21T12:25:18;16.85;;;7.55;;
25962;SDS011;13760;52.588;13.406;2023-11-21T12:27:46;7.95;;;5.88;;
25962;SDS011;13760;52.588;13.406;2023-11-21T12:30:19;11.57;;;6.53;;
25962;SDS011;13760;52.588;13.406;2023-11-21T12:32:48;11.30;;;6.20;;
25962;SDS011;13760;52.588;13.406;2023-11-21T12:35:29;11.80;;;6.75;;
25962;SDS011;13760;52.588;13.406;2023-11-21T12:37:59;9.23;;;6.38;;
25962;SDS011;13760;52.588;13.406;2023-11-21T12:40:27;9.82;;;6.22;;
25962;SDS011;13760;52.588;13.406;2023-11-21T12:42:55;8.27;;;6.13;;
25962;SDS011;13760;52.588;13.406;2023-11-21T12:45:24;9.65;;;6.22;;
25962;SDS011;13760;52.588;13.406;2023-11-21T12:47:54;9.65;;;6.47;;
25962;SDS011;13760;52.588;13.406;2023-11-21T12:50:32;10.02;;;6.70;;
25962;SDS011;13760;52.588;13.406;2023-11-21T12:53:03;12.32;;;7.05;;
25962;SDS011;13760;52.588;13.406;2023-11-21T12:55:30;10.90;;;7.38;;
25962;SDS011;13760;52.588;13.406;2023-11-21T12:57:57;14.10;;;8.27;;
25962;SDS011;13760;52.588;13.406;2023-11-21T13:00:42;11.80;;;7.85;;
25962;SDS011;13760;52.588;13.406;2023-11-21T13:03:29;12.32;;;7.60;;
25962;SDS011;13760;52.588;13.406;2023-11-21T13:05:55;13.75;;;7.35;;
25962;SDS011;13760;52.588;13.406;2023-11-21T13:08:24;13.63;;;7.43;;
25962;SDS011;13760;52.588;13.406;2023-11-21T13:10:54;12.90;;;7.53;;
25962;SDS011;13760;52.588;13.406;2023-11-21T13:15:57;13.55;;;7.15;;
25962;SDS011;13760;52.588;13.406;2023-11-21T13:18:29;12.73;;;7.90;;
25962;SDS011;13760;52.588;13.406;2023-11-21T13:20:59;12.60;;;7.78;;
25962;SDS011;13760;52.588;13.406;2023-11-21T13:23:39;13.43;;;7.72;;
25962;SDS011;13760;52.588;13.406;2023-11-21T13:26:06;12.32;;;7.68;;
25962;SDS011;13760;52.588;13.406;2023-11-21T13:28:33;12.55;;;8.27;;
25962;SDS011;13760;52.588;13.406;2023-11-21T13:31:00;15.90;;;8.45;;
25962;SDS011;13760;52.588;13.406;2023-11-21T13:33:45;13.00;;;8.20;;
25962;SDS011;13760;52.588;13.406;2023-11-21T13:38:47;20.60;;;10.82;;
25962;SDS011;13760;52.588;13.406;2023-11-21T13:41:14;21.60;;;11.45;;
25962;SDS011;13760;52.588;13.406;2023-11-21T13:43:40;42.80;;;17.58;;
25962;SDS011;13760;52.588;13.406;2023-11-21T13:46:09;44.53;;;18.70;;
25962;SDS011;13760;52.588;13.406;2023-11-21T13:48:46;46.47;;;19.80;;
25962;SDS011;13760;52.588;13.406;2023-11-21T13:51:24;42.97;;;18.20;;
25962;SDS011;13760;52.588;13.406;2023-11-21T13:54:02;26.10;;;14.75;;
25962;SDS011;13760;52.588;13.406;2023-11-21T13:56:33;29.67;;;15.40;;
25962;SDS011;13760;52.588;13.406;2023-11-21T13:58:59;25.15;;;14.48;;
25962;SDS011;13760;52.588;13.406;2023-11-21T14:01:33;28.92;;;15.85;;
25962;SDS011;13760;52.588;13.406;2023-11-21T14:04:17;24.98;;;15.23;;
25962;SDS011;13760;52.588;13.406;2023-11-21T14:06:43;27.45;;;14.85;;
25962;SDS011;13760;52.588;13.406;2023-11-21T14:09:32;26.15;;;15.90;;
25962;SDS011;13760;52.588;13.406;2023-11-21T14:12:08;34.22;;;17.20;;
25962;SDS011;13760;52.588;13.406;2023-11-21T14:14:38;32.03;;;17.70;;
25962;SDS011;13760;52.588;13.406;2023-11-21T14:17:09;32.63;;;18.25;;
25962;SDS011;13760;52.588;13.406;2023-11-21T14:19:35;32.15;;;18.38;;
25962;SDS011;13760;52.588;13.406;2023-11-21T14:22:05;33.50;;;18.90;;
25962;SDS011;13760;52.588;13.406;2023-11-21T14:24:32;29.48;;;18.90;;
25962;SDS011;13760;52.588;13.406;2023-11-21T14:26:58;34.80;;;20.27;;
25962;SDS011;13760;52.588;13.406;2023-11-21T14:29:24;29.35;;;18.63;;
25962;SDS011;13760;52.588;13.406;2023-11-21T14:31:52;34.90;;;20.83;;
25962;SDS011;13760;52.588;13.406;2023-11-21T14:34:21;37.58;;;20.42;;
25962;SDS011;13760;52.588;13.406;2023-11-21T14:36:47;36.53;;;21.23;;
25962;SDS011;13760;52.588;13.406;2023-11-21T14:39:14;32.83;;;20.75;;
25962;SDS011;13760;52.588;13.406;2023-11-21T14:41:51;32.35;;;19.67;;
25962;SDS011;13760;52.588;13.406;2023-11-21T14:44:20;32.88;;;20.08;;